Silver Peak Trail, Santa Catalina Island Weather observations

Data are for 10 minute period ending at time listed.
 Day   Time   Solar   Ave.   Ave.  Ave.  Vector    Max.   Stn.    Total
  of    of     Rad.   Air    Rel.  Wind   Wind     Wind   Baro.  Precip.
Year   Day            Temp.  Hum.  Speed  Dir.     Gust   Pres.         
2026   (PST)   W/m2    F      %     mph   deg.      mph    mb.     in.  
------------------------------------------------------------------------
 122   15:30  592.0    67   61.5     4     29.9     6.6    999.0   0.00  
 122   15:40  562.0    65   67.4     3     29.9     6.0    999.0   0.00  
 122   15:50  532.0    67   65.5     2     29.9     4.2    999.0   0.00  
 122   16:00  501.0    66   63.0     5     29.9     8.4    999.0   0.00  
 122   16:10  468.0    66   62.2     5     29.9     7.8    999.0   0.00  
 122   16:20  436.0    65   63.4     4     29.9     8.4    999.0   0.00  
 122   16:30  404.0    66   60.9     4     29.9     8.4    999.0   0.00  
 122   16:40  374.0    65   65.5     3     29.9     6.6    999.0   0.00  
 122   16:50  350.0    67   61.4     5     29.9    11.9    999.0   0.00  
 122   17:00  315.0    65   54.7     9     30.0    15.5    999.0   0.00  
 122   17:10  260.0    65   52.4     9     30.4    15.5    999.0   0.00  
 122   17:20  236.0    64   50.1    12     31.0    19.1    999.0   0.00  
 122   17:30  169.0    64   47.7    12     30.9    17.9    999.0   0.00  
 122   17:40   94.0    64   46.0    10     30.3    17.3    999.0   0.00  
 122   17:50  105.0    64   44.7     8     29.9    13.1    999.0   0.00  
 122   18:00   80.0    63   49.3    10     30.2    14.9    999.0   0.00  
 122   18:10   60.0    60   54.3    11     31.3    14.9    999.0   0.00  
 122   18:20   59.0    60   54.8    10     32.1    13.7    999.0   0.00  
 122   18:30   38.0    59   63.9     9     32.0    14.9    999.0   0.00  
 122   18:40   12.0    54   84.6     9     32.1    12.5    999.0   0.00  
 122   18:50    4.0    53   89.3    10     30.6    13.1    999.0   0.00  
 122   19:00    1.0    53   91.8    11     30.3    14.9    999.0   0.00  
 122   19:10    0.0    53   92.9    11     30.0    15.5    999.0   0.00  
 122   19:20    0.0    53   93.2    12     30.2    16.1    999.0   0.00  
 122   19:30    0.0    53   93.6     8     30.1    12.5    999.0   0.00  
 122   19:40    0.0    53   93.9     9     30.1    13.7    999.0   0.00  
 122   19:50    0.0    52   94.0    11     30.2    16.1    999.0   0.00  
 122   20:00    0.0    53   94.2    11     30.1    16.1    999.0   0.00  
 122   20:10    0.0    52   94.2    11     30.1    16.1    999.0   0.00  
 122   20:20    0.0    53   94.3     8     30.1    13.7    999.0   0.00  
 122   20:30    0.0    53   94.4     7     30.0    15.5    999.0   0.00  
 122   20:40    0.0    52   94.4     9     30.3    16.1    999.0   0.00  
 122   20:50    0.0    52   94.4     8     30.0    14.9    999.0   0.00  
 122   21:00    0.0    52   94.5    10     30.2    17.3    999.0   0.00  
 122   21:10    0.0    52   94.5     8     30.3    16.7    999.0   0.00  
 122   21:20    0.0    52   94.3     9     30.1    16.1    999.0   0.00  
 122   21:30    0.0    52   94.2     8     30.4    14.3    999.0   0.00  
 122   21:40    0.0    52   94.2     8     30.1    16.1    999.0   0.00  
 122   21:50    0.0    52   94.3     9     30.1    14.3    999.0   0.00  
 122   22:00    0.0    52   94.3     8     30.1    15.5    999.0   0.00  
 122   22:10    0.0    52   94.2     5     30.1    11.9    999.0   0.00  
 122   22:20    0.0    52   94.2     6     30.1    13.7    999.0   0.00  
 122   22:30    0.0    52   94.1     5     30.1     9.0    999.0   0.00  
 122   22:40    0.0    52   94.0     5     30.1     9.6    999.0   0.00  
 122   22:50    0.0    52   94.0     5     30.1    13.1    999.0   0.00  
 122   23:00    0.0    52   93.9     6     30.1    11.9    999.0   0.00  
 122   23:10    0.0    52   94.1     6     30.1    12.5    999.0   0.00  
 122   23:20    0.0    52   94.1     6     30.1    15.5    999.0   0.00  
 122   23:30    0.0    52   94.0     6     30.1    11.3    999.0   0.00  
 122   23:40    0.0    52   93.8     5     30.1    10.2    999.0   0.00  
 122   23:50    0.0    52   93.4     5     30.1     9.6    999.0   0.00  
 123    0:00    0.0    52   93.4     4     30.1    11.9    999.0   0.00  
 123    0:10    0.0    52   93.3     5     30.2    11.9    999.0   0.00  
 123    0:20    0.0    52   93.5     4     30.1    11.9    999.0   0.00  
 123    0:30    0.0    52   93.3     4     30.1     9.0    999.0   0.00  
 123    0:40    0.0    52   93.3     4     30.1     8.4    999.0   0.00  
 123    0:50    0.0    51   93.1     4     30.1    10.2    999.0   0.00  
 123    1:00    0.0    52   92.8     6     30.1    13.1    999.0   0.00  
 123    1:10    0.0    52   92.2     7     30.2    13.1    999.0   0.00  
 123    1:20    0.0    52   92.4     6     30.1    10.2    999.0   0.00  
 123    1:30    0.0    52   93.1     6     30.1    11.9    999.0   0.00  
 123    1:40    0.0    52   93.1     6     30.1    10.2    999.0   0.00  
 123    1:50    0.0    52   92.3     4     30.2     9.0    999.0   0.00  
 123    2:00    0.0    52   91.4     5     30.2     9.6    999.0   0.00  
 123    2:10    0.0    52   91.7     4     30.2     6.6    999.0   0.00  
 123    2:20    0.0    52   91.1     4     30.2     7.8    999.0   0.00  
 123    2:30    0.0    52   91.0     5     30.3     9.0    999.0   0.00  
 123    2:40    0.0    52   91.3     4     30.3     7.2    999.0   0.00  
 123    2:50    0.0    52   91.2     4     30.3     7.2    999.0   0.00  
 123    3:00    0.0    51   90.7     5     30.3     8.4    999.0   0.00  
 123    3:10    0.0    51   89.7     5     30.3     9.0    999.0   0.00  
 123    3:20    0.0    51   86.4     6     30.3     9.0    999.0   0.00  
 123    3:30    0.0    52   85.3     5     30.4     9.6    999.0   0.00  
 123    3:40    0.0    52   85.4     5     30.4     7.8    999.0   0.00  
 123    3:50    0.0    51   86.3     4     30.4     7.2    999.0   0.00  
 123    4:00    0.0    50   87.6     5     30.4     8.4    999.0   0.00  
 123    4:10    0.0    50   89.5     5     30.5     7.8    999.0   0.00  
 123    4:20    0.0    50   90.2     6     30.5     8.4    999.0   0.00  
 123    4:30    0.0    50   89.4     6     30.5     9.0    999.0   0.00  
 123    4:40    0.0    50   89.1     6     30.5     9.6    999.0   0.00  
 123    4:50    0.0    50   89.2     7     30.5     9.6    999.0   0.00  
 123    5:00    2.0    50   88.7     6     30.5    11.3    999.0   0.00  
 123    5:10    6.0    50   89.7     6     30.5     9.0    999.0   0.00  
 123    5:20   21.0    50   90.1     6     30.5     8.4    999.0   0.00  
 123    5:30   59.0    50   89.8     5     30.4     7.8    999.0   0.00  
 123    5:40   74.0    51   89.6     6     30.5     8.4    999.0   0.00  
 123    5:50   96.0    51   89.1     6     30.6     8.4    999.0   0.00  
 123    6:00  126.0    51   88.8     6     30.6     9.6    999.0   0.00  
 123    6:10  158.0    52   88.2     5     30.6     7.2    999.0   0.00  
 123    6:20  190.0    52   87.3     5     30.6     7.2    999.0   0.00  
 123    6:30  224.0    52   85.5     5     30.6     7.2    999.0   0.00  
 123    6:40  260.0    53   81.8     3     30.6     4.8    999.0   0.00  
 123    6:50  224.0    53   79.0     5     30.5     8.4    999.0   0.00  
 123    7:00  129.0    53   80.6     4     30.5     7.2    999.0   0.00  
 123    7:10  149.0    52   83.6     5     30.4     7.2    999.0   0.00  
 123    7:20  174.0    53   82.6     3     30.4     6.0    999.0   0.00  
 123    7:30  233.0    53   78.5     4     30.4     7.2    999.0   0.00  
 123    7:40  246.0    55   77.7     2     30.4     4.8    999.0   0.00  
 123    7:50  326.0    55   77.1     3     30.4     6.0    999.0   0.00  
 123    8:00  201.0    55   76.9     3     30.4     6.0    999.0   0.00  
 123    8:10  165.0    54   78.9     3     30.3     4.2    999.0   0.00  
 123    8:20  228.0    55   78.7     2     30.3     4.2    999.0   0.00  
 123    8:30  182.0    56   75.2     2     30.3     4.2    999.0   0.00  
 123    8:40  389.0    56   72.9     3     30.2     6.0    999.0   0.00  
 123    8:50  329.0    59   68.8     3     30.1     7.8    999.0   0.00  
 123    9:00  276.0    58   69.4     5     30.1     7.8    999.0   0.00  
 123    9:10  303.0    58   68.9     4     30.1     7.8    999.0   0.00  
 123    9:20  420.0    58   68.0     4     30.0     7.2    999.0   0.00  
 123    9:30  417.0    59   66.5     5     30.0    10.2    999.0   0.00  
 123    9:40  424.0    59   66.4     4     30.0     7.2    999.0   0.00  
 123    9:50  354.0    58   66.8     5     30.0     9.6    999.0   0.00  
 123   10:00  242.0    57   70.0     4     30.0     8.4    999.0   0.00  
 123   10:10  257.0    58   68.0     2     30.0     3.6    999.0   0.00  
 123   10:20  352.0    57   68.2     2     30.0     3.6    999.0   0.00  
 123   10:30  397.0    58   67.2     2     30.0     5.4    999.0   0.00  
 123   10:40  387.0    59   66.0     3     30.0     6.6    999.0   0.00  
 123   10:50  407.0    59   66.1     3     30.0     6.0    999.0   0.00  
 123   11:00  350.0    59   66.0     3     30.1     7.2    999.0   0.00  
 123   11:10  383.0    60   65.0     4     30.2     7.2    999.0   0.00  
 123   11:20  469.0    60   65.5     4     30.2     8.4    999.0   0.00  
 123   11:30  454.0    61   63.2     4     30.2     7.2    999.0   0.00  
 123   11:40  474.0    61   63.8     6     30.0     9.0    999.0   0.00  
 123   11:50  463.0    61   64.8     5     30.0     9.6    999.0   0.00  
 123   12:00  444.0    61   65.4     6     29.9    10.2    999.0   0.00  
 123   12:10  418.0    60   65.7     6     29.9    13.7    999.0   0.00  
 123   12:20  401.0    60   65.0     5     29.9    10.2    999.0   0.00  
 123   12:30  428.0    60   64.2     4     29.8     8.4    999.0   0.00  
 123   12:40  452.0    61   63.7     5     29.8     7.8    999.0   0.00  
 123   12:50  413.0    61   63.0     7     29.8    10.2    999.0   0.00  
 123   13:00  434.0    61   63.7     5     29.8     9.6    999.0   0.00  
 123   13:10  473.0    61   63.3     7     29.8    13.1    999.0   0.00  
 123   13:20  526.0    61   63.1     7     29.8    13.1    999.0   0.00  
 123   13:30  586.0    62   63.0     7     29.8    11.9    999.0   0.00  
 123   13:40  600.0    62   63.3     8     29.8    12.5    999.0   0.00  
 123   13:50  562.0    62   65.0     7     29.8    11.3    999.0   0.00  
 123   14:00  304.0    61   68.9     6     29.8    10.2    999.0   0.00  
 123   14:10  300.0    58   75.6     5     29.8    10.8    999.0   0.00  
 123   14:20  274.0    58   77.2     5     29.9    11.3    999.0   0.00  
 123   14:30  291.0    57   77.5     5     29.9    10.8    999.0   0.00  
 123   14:40  265.0    58   74.4     4     29.9     9.0    999.0   0.00  
 123   14:50  300.0    59   70.6     5     29.9     9.6    999.0   0.00  
 123   15:00  415.0    59   68.5     6     29.9    10.8    999.0   0.00  
 123   15:10  400.0    60   67.1     6     29.9    10.8    999.0   0.00  
 123   15:20  393.0    60   67.0     5     29.9     9.6    999.0   0.00  

Return to Silver Peak Trail graphs page.


Western Regional Climate Center,wrcc@dri.edu